Time;durP1;ratioP1;P1;durP2;ratioP2;P2;SDS_P1;SDS_P2;PMS_P1;PMS_P2;Temp;Humidity;BMP_temperature;BMP_pressure;BME280_temperature;BME280_humidity;BME280_pressure;Samples;Min_cycle;Max_cycle;Signal;HPM_P1;HPM_P2
2022/02/03 00:00:20;;;;;;;7.88;3.90;;;;;;;4.52;100.00;96454.41;5131548;28;24519;-75
2022/02/03 00:02:57;;;;;;;3.90;3.50;;;;;;;4.57;100.00;96454.31;5131590;28;24506;-76
2022/02/03 00:05:33;;;;;;;4.00;3.45;;;;;;;4.64;100.00;96457.53;5131569;28;24474;-76
2022/02/03 00:08:09;;;;;;;4.85;3.53;;;;;;;4.63;100.00;96459.25;5131451;28;24421;-76
2022/02/03 00:11:12;;;;;;;3.83;3.38;;;;;;;4.63;100.00;96461.81;5131438;28;24515;-76
2022/02/03 00:16:46;;;;;;;3.60;3.10;;;;;;;4.58;100.00;96461.94;5135288;28;24495;-75
2022/02/03 00:22:21;;;;;;;5.97;3.40;;;;;;;4.69;100.00;96451.38;5135909;28;24536;-74
2022/02/03 00:25:02;;;;;;;3.40;3.00;;;;;;;4.77;100.00;96452.00;5135998;28;24824;-75
2022/02/03 00:27:41;;;;;;;3.38;3.08;;;;;;;4.75;100.00;96448.66;5137371;27;24469;-75
2022/02/03 00:30:11;;;;;;;3.38;2.65;;;;;;;4.78;100.00;96440.88;5135480;27;25041;-76
2022/02/03 00:32:53;;;;;;;3.10;2.80;;;;;;;4.79;100.00;96439.13;5135484;27;24798;-76
2022/02/03 00:38:20;;;;;;;3.30;2.40;;;;;;;4.85;100.00;96431.22;5134115;27;24440;-76
2022/02/03 00:49:04;;;;;;;3.00;2.53;;;;;;;4.97;100.00;96448.84;5140424;27;24998;-74
2022/02/03 00:51:31;;;;;;;3.23;2.63;;;;;;;4.94;100.00;96443.81;5140379;27;24508;-75
2022/02/03 00:53:59;;;;;;;2.53;2.25;;;;;;;4.93;100.00;96446.41;5141185;27;24453;-75
2022/02/03 00:56:34;;;;;;;2.88;2.38;;;;;;;4.92;100.00;96444.72;5141173;27;24432;-75
2022/02/03 00:59:05;;;;;;;2.42;2.22;;;;;;;4.90;100.00;96444.78;5135798;27;24808;-76
2022/02/03 01:01:34;;;;;;;2.40;2.20;;;;;;;4.89;100.00;96443.09;5134746;27;24928;-77
2022/02/03 01:04:05;;;;;;;2.47;2.28;;;;;;;4.84;100.00;96439.81;5134499;27;24421;-75
2022/02/03 01:06:34;;;;;;;3.35;2.60;;;;;;;4.84;100.00;96439.81;5134302;27;24988;-76
2022/02/03 01:09:01;;;;;;;2.88;2.20;;;;;;;4.83;100.00;96427.88;5134585;27;25209;-76
2022/02/03 01:11:36;;;;;;;2.15;1.98;;;;;;;4.86;100.00;96425.22;5134776;27;24432;-75
2022/02/03 01:14:08;;;;;;;2.80;2.50;;;;;;;4.94;100.00;96420.72;5134193;27;25046;-76
2022/02/03 01:16:50;;;;;;;3.05;2.38;;;;;;;4.86;100.00;96425.22;5134183;27;24452;-75
2022/02/03 01:33:49;;;;;;;2.55;2.35;;;;;;;4.72;100.00;96427.38;5139049;27;24481;-75
2022/02/03 01:44:45;;;;;;;2.58;2.33;;;;;;;4.74;100.00;96408.44;5139317;27;24420;-75
2022/02/03 01:47:26;;;;;;;2.80;2.33;;;;;;;4.68;100.00;96407.81;5139955;27;24493;-75
2022/02/03 01:52:39;;;;;;;3.00;2.60;;;;;;;4.71;100.00;96416.25;5136491;27;24424;-76
2022/02/03 01:55:08;;;;;;;3.33;2.75;;;;;;;4.70;100.00;96421.41;5133499;27;24794;-76
2022/02/03 01:57:37;;;;;;;3.30;3.00;;;;;;;4.64;100.00;96421.63;5133617;27;24428;-76
2022/02/03 02:00:09;;;;;;;3.10;2.58;;;;;;;4.61;100.00;96420.81;5133873;27;24812;-76
2022/02/03 02:02:39;;;;;;;3.70;3.15;;;;;;;4.51;100.00;96416.81;5133684;27;24413;-76
2022/02/03 02:05:17;;;;;;;2.80;2.50;;;;;;;4.53;100.00;96416.78;5133336;27;24981;-76
2022/02/03 02:07:58;;;;;;;2.47;2.28;;;;;;;4.52;100.00;96412.53;5133370;27;24428;-76
2022/02/03 02:10:52;;;;;;;2.72;2.50;;;;;;;4.55;100.00;96403.03;5133508;27;24468;-76
2022/02/03 02:13:38;;;;;;;2.57;2.37;;;;;;;4.58;100.00;96399.53;5133478;27;24592;-76
2022/02/03 02:16:35;;;;;;;2.60;2.40;;;;;;;4.58;100.00;96400.38;5133202;27;25032;-76
2022/02/03 02:19:13;;;;;;;2.50;2.30;;;;;;;4.54;100.00;96398.78;5133059;27;24420;-76
2022/02/03 02:38:54;;;;;;;2.20;1.80;;;;;;;4.50;100.00;96391.22;5132645;27;24412;-74
2022/02/03 02:42:23;;;;;;;2.25;2.05;;;;;;;4.52;100.00;96389.44;5132730;27;24498;-74
2022/02/03 02:44:50;;;;;;;2.63;1.92;;;;;;;4.44;100.00;96393.97;5132365;27;24416;-74
2022/02/03 02:47:27;;;;;;;4.40;2.05;;;;;;;4.41;100.00;96391.47;5132577;27;24428;-74
2022/02/03 02:50:02;;;;;;;2.80;1.92;;;;;;;4.40;100.00;96392.38;5132147;27;24428;-75
2022/02/03 02:52:38;;;;;;;2.58;1.92;;;;;;;4.37;100.00;96383.03;5131975;27;24474;-74
2022/02/03 02:55:18;;;;;;;2.43;1.90;;;;;;;4.41;100.00;96381.22;5134704;27;24441;-75
2022/02/03 02:58:08;;;;;;;2.65;2.00;;;;;;;4.45;100.00;96375.09;5132266;27;24980;-75
2022/02/03 03:29:19;;;;;;;2.45;2.22;;;;;;;4.32;100.00;96349.84;5037013;27;24442;-74
2022/02/03 03:32:07;;;;;;;2.70;2.50;;;;;;;4.24;100.00;96358.63;5131721;27;24795;-74
2022/02/03 03:34:57;;;;;;;3.60;2.83;;;;;;;4.12;100.00;96350.41;5131887;27;24501;-73
2022/02/03 03:37:30;;;;;;;4.30;2.50;;;;;;;4.16;100.00;96342.63;5132427;27;24429;-74
2022/02/03 03:40:00;;;;;;;2.63;2.20;;;;;;;4.20;100.00;96339.94;5137576;27;24442;-74
2022/02/03 03:42:31;;;;;;;2.67;2.25;;;;;;;4.19;100.00;96330.56;5138186;27;24421;-74
2022/02/03 03:45:01;;;;;;;2.35;1.60;;;;;;;4.21;100.00;96325.38;5138056;27;24444;-74
2022/02/03 03:47:31;;;;;;;1.88;1.75;;;;;;;4.18;100.00;96333.16;5137128;27;24417;-74
2022/02/03 03:50:04;;;;;;;3.13;2.05;;;;;;;4.22;100.00;96337.31;5137516;27;24424;-74
2022/02/03 03:52:33;;;;;;;2.00;1.80;;;;;;;4.22;100.00;96339.88;5137023;27;24451;-73
2022/02/03 03:55:13;;;;;;;1.80;1.70;;;;;;;4.24;100.00;96345.81;5136072;27;24513;-74
2022/02/03 03:57:59;;;;;;;2.20;1.88;;;;;;;4.26;100.00;96346.59;5131564;27;24429;-75
2022/02/03 04:00:44;;;;;;;3.20;1.88;;;;;;;4.28;100.00;96352.53;5131415;28;24431;-75
2022/02/03 04:29:26;;;;;;;2.15;1.95;;;;;;;4.07;100.00;96318.09;5131227;28;24420;-74
2022/02/03 04:38:03;;;;;;;2.27;1.60;;;;;;;4.17;100.00;96304.13;5133098;28;24474;-74
2022/02/03 04:44:15;;;;;;;1.30;1.20;;;;;;;4.23;100.00;96280.06;5113152;28;24432;-74
2022/02/03 04:56:24;;;;;;;1.80;1.70;;;;;;;4.18;100.00;96292.16;5129586;28;24443;-74
2022/02/03 04:59:27;;;;;;;1.95;1.75;;;;;;;4.20;100.00;96280.13;5126650;28;24433;-74
2022/02/03 05:02:14;;;;;;;1.50;1.40;;;;;;;4.22;100.00;96280.91;5089951;28;24564;-74
2022/02/03 05:05:08;;;;;;;1.55;1.45;;;;;;;4.23;100.00;96275.75;5091652;28;24510;-75
2022/02/03 05:08:20;;;;;;;1.45;1.35;;;;;;;4.20;100.00;96264.75;5110027;28;24416;-75
2022/02/03 05:11:34;;;;;;;2.55;2.35;;;;;;;4.21;100.00;96271.53;5110186;28;25039;-73
2022/02/03 05:20:35;;;;;;;3.20;2.53;;;;;;;4.25;100.00;96266.28;5073690;28;24482;-74
2022/02/03 05:23:34;;;;;;;6.00;4.13;;;;;;;4.19;100.00;96268.19;5113805;28;24502;-74
2022/02/03 05:26:29;;;;;;;8.35;6.85;;;;;;;4.19;100.00;96263.91;5113801;28;24440;-73
2022/02/03 05:32:19;;;;;;;4.07;3.47;;;;;;;4.11;100.00;96259.00;5113572;28;24560;-74
2022/02/03 05:35:19;;;;;;;3.40;2.70;;;;;;;4.09;100.00;96260.78;5114880;28;24437;-75
2022/02/03 05:44:04;;;;;;;4.30;2.03;;;;;;;3.97;100.00;96267.97;5113245;28;24429;-75
2022/02/03 05:52:36;;;;;;;20.45;3.90;;;;;;;3.79;100.00;96256.53;5109570;28;24489;-75
2022/02/03 06:06:13;;;;;;;3.03;2.72;;;;;;;3.68;100.00;96235.50;5112530;28;24446;-74
2022/02/03 06:08:53;;;;;;;3.13;2.72;;;;;;;3.72;100.00;96242.22;5118021;28;24495;-74
2022/02/03 06:14:10;;;;;;;2.55;2.25;;;;;;;3.78;100.00;96242.91;5112864;28;24531;-74
2022/02/03 06:16:46;;;;;;;15.02;10.30;;;;;;;3.82;100.00;96244.47;5112269;28;24860;-74
2022/02/03 06:22:22;;;;;;;14.35;11.75;;;;;;;3.93;100.00;96238.19;5112669;28;24479;-74
2022/02/03 06:27:23;;;;;;;4.28;3.88;;;;;;;3.85;100.00;96235.84;5104849;28;24514;-74
2022/02/03 06:27:39;;;;;;;3.83;2.95;;;;;;;3.90;100.00;96226.31;5111189;28;24428;-74
2022/02/03 06:30:08;;;;;;;8.30;6.57;;;;;;;3.90;100.00;96216.06;5111405;28;24483;-72
2022/02/03 06:32:38;;;;;;;7.43;6.28;;;;;;;3.96;100.00;96215.88;5111927;28;24422;-73
2022/02/03 06:35:07;;;;;;;5.55;4.80;;;;;;;3.97;100.00;96211.59;5112247;28;24468;-74
2022/02/03 06:37:33;;;;;;;4.93;4.35;;;;;;;3.95;100.00;96218.50;5112109;28;24421;-73
2022/02/03 06:40:00;;;;;;;5.55;4.90;;;;;;;3.97;100.00;96217.56;5113345;28;24421;-73
2022/02/03 06:42:27;;;;;;;5.82;5.22;;;;;;;3.94;100.00;96212.53;5112007;28;24432;-74
2022/02/03 06:44:57;;;;;;;7.57;6.57;;;;;;;3.95;100.00;96218.50;5111806;28;24794;-74
2022/02/03 06:47:28;;;;;;;9.23;5.50;;;;;;;3.96;100.00;96221.00;5112046;28;24424;-74
2022/02/03 06:50:01;;;;;;;8.03;5.33;;;;;;;3.86;100.00;96225.56;5111672;28;24463;-73
2022/02/03 06:52:43;;;;;;;9.98;8.50;;;;;;;3.90;100.00;96221.19;5111998;28;24521;-74
2022/02/03 06:55:15;;;;;;;9.75;8.25;;;;;;;3.88;100.00;96220.38;5111754;28;24448;-73
2022/02/03 06:57:47;;;;;;;6.00;4.40;;;;;;;3.92;100.00;96221.13;5112684;28;24479;-73
2022/02/03 07:00:19;;;;;;;8.35;4.68;;;;;;;3.93;100.00;96223.69;5111856;28;24520;-73
2022/02/03 07:02:48;;;;;;;5.65;4.55;;;;;;;3.90;100.00;96221.19;5112547;28;24428;-73
2022/02/03 07:05:15;;;;;;;5.03;4.53;;;;;;;3.87;100.00;96223.84;5112901;28;24433;-74
2022/02/03 07:07:43;;;;;;;6.60;5.43;;;;;;;3.88;100.00;96223.78;5111987;28;24462;-73
2022/02/03 07:10:11;;;;;;;4.30;3.90;;;;;;;3.87;100.00;96227.25;5103932;28;25013;-73
2022/02/03 07:12:38;;;;;;;3.00;2.65;;;;;;;3.91;100.00;96220.31;5111351;28;24457;-73
2022/02/03 07:15:07;;;;;;;4.55;3.35;;;;;;;3.98;100.00;96213.28;5107909;28;24437;-73
2022/02/03 07:17:34;;;;;;;2.35;2.15;;;;;;;3.95;100.00;96214.19;5093906;28;24441;-74
2022/02/03 07:20:03;;;;;;;2.40;1.83;;;;;;;4.00;100.00;96204.63;5094996;28;24425;-75
2022/02/03 07:22:30;;;;;;;1.80;1.70;;;;;;;3.99;100.00;96205.53;5095875;28;24430;-74
2022/02/03 07:24:59;;;;;;;2.15;1.90;;;;;;;4.01;100.00;96202.94;5093391;28;24975;-74
2022/02/03 07:27:26;;;;;;;2.30;1.80;;;;;;;4.02;100.00;96202.06;5090989;28;24501;-74
2022/02/03 07:29:54;;;;;;;2.05;1.85;;;;;;;4.05;100.00;96207.09;5090687;28;24788;-74
2022/02/03 07:32:22;;;;;;;1.60;1.50;;;;;;;4.07;100.00;96195.88;5091723;28;24437;-74
2022/02/03 07:34:51;;;;;;;1.98;1.63;;;;;;;4.11;100.00;96188.94;5091674;28;25005;-74
2022/02/03 07:37:17;;;;;;;2.25;1.92;;;;;;;4.13;100.00;96189.75;5090709;28;24430;-73
2022/02/03 07:39:45;;;;;;;3.20;2.78;;;;;;;4.09;100.00;96183.03;5090633;28;24991;-73
2022/02/03 07:42:13;;;;;;;4.28;3.20;;;;;;;4.13;100.00;96182.06;5091385;28;24558;-73
2022/02/03 07:44:39;;;;;;;5.43;3.17;;;;;;;4.15;100.00;96187.13;5091344;28;24947;-73
2022/02/03 07:47:06;;;;;;;4.43;3.20;;;;;;;4.16;100.00;96176.84;5090957;28;24935;-74
2022/02/03 07:49:34;;;;;;;3.50;2.63;;;;;;;4.21;100.00;96185.22;5091492;28;24414;-74
2022/02/03 07:52:01;;;;;;;4.05;2.78;;;;;;;4.23;100.00;96188.59;5091419;28;24514;-73
2022/02/03 07:54:29;;;;;;;2.67;2.47;;;;;;;4.21;100.00;96182.66;5090703;28;24441;-74
2022/02/03 07:56:55;;;;;;;3.65;2.72;;;;;;;4.25;100.00;96178.28;5091146;28;24446;-73
2022/02/03 07:59:23;;;;;;;4.47;2.90;;;;;;;4.31;100.00;96167.84;5091182;28;24425;-73
2022/02/03 08:01:49;;;;;;;5.50;2.63;;;;;;;4.37;100.00;96162.50;5090377;28;24784;-73
2022/02/03 08:04:20;;;;;;;2.25;2.05;;;;;;;4.41;100.00;96163.22;5090320;28;24426;-73
2022/02/03 08:06:47;;;;;;;2.10;1.90;;;;;;;4.42;100.00;96164.94;5090081;28;24479;-73
2022/02/03 08:09:21;;;;;;;2.00;1.87;;;;;;;4.38;100.00;96161.63;5090267;28;24438;-74
2022/02/03 08:11:49;;;;;;;3.00;1.70;;;;;;;4.43;100.00;96152.03;5090591;28;24841;-74
2022/02/03 08:14:20;;;;;;;2.17;1.98;;;;;;;4.49;100.00;96140.75;5090874;28;24517;-74
2022/02/03 08:16:52;;;;;;;2.03;1.83;;;;;;;4.50;100.00;96148.38;5090385;28;25028;-75
2022/02/03 08:19:24;;;;;;;5.40;3.15;;;;;;;4.56;100.00;96145.63;5091999;28;24498;-73
2022/02/03 08:21:59;;;;;;;6.57;3.67;;;;;;;4.59;100.00;96139.53;5091010;28;25028;-73
2022/02/03 08:24:28;;;;;;;9.40;4.30;;;;;;;4.60;100.00;96136.94;5090625;28;24510;-74
2022/02/03 08:27:21;;;;;;;8.70;4.38;;;;;;;4.61;100.00;96124.94;5090006;28;24483;-73
2022/02/03 08:30:19;;;;;;;7.47;3.87;;;;;;;4.70;100.00;96116.09;5090114;28;24521;-73
2022/02/03 08:32:50;;;;;;;9.93;4.78;;;;;;;4.62;100.00;96126.63;5090676;28;24437;-73
2022/02/03 08:35:22;;;;;;;13.65;5.13;;;;;;;4.68;100.00;96123.03;5090772;28;24494;-74
2022/02/03 08:38:01;;;;;;;11.82;7.35;;;;;;;4.73;100.00;96133.97;5090866;28;24433;-72
2022/02/03 08:40:31;;;;;;;6.90;5.25;;;;;;;4.78;100.00;96129.50;5090750;28;24538;-72
2022/02/03 08:42:58;;;;;;;5.50;4.13;;;;;;;4.84;100.00;96130.13;5091031;28;24799;-73
2022/02/03 08:45:24;;;;;;;9.90;4.80;;;;;;;4.87;100.00;96123.22;5090244;28;24487;-74
2022/02/03 08:47:52;;;;;;;11.30;2.60;;;;;;;4.94;100.00;96114.44;5091261;28;24425;-73
2022/02/03 08:50:19;;;;;;;3.33;2.10;;;;;;;5.00;100.00;96106.50;5094450;28;24433;-74
2022/02/03 08:52:55;;;;;;;3.40;2.50;;;;;;;5.00;100.00;96099.63;5094368;28;24430;-74
2022/02/03 08:55:27;;;;;;;2.75;2.22;;;;;;;5.06;100.00;96101.16;5094710;28;24449;-76
2022/02/03 09:01:01;;;;;;;3.08;2.47;;;;;;;5.27;100.00;96105.50;5093686;28;24424;-75
2022/02/03 09:37:10;;;;;;;1.43;1.33;;;;;;;6.18;100.00;96063.50;5093334;28;24518;-75
2022/02/03 09:59:16;;;;;;;0.60;0.60;;;;;;;6.03;100.00;96057.22;5112916;28;25011;-76
2022/02/03 10:01:51;;;;;;;0.65;0.60;;;;;;;5.91;100.00;96057.69;5112136;28;24440;-75
2022/02/03 10:04:37;;;;;;;0.93;0.80;;;;;;;6.03;100.00;96058.06;5113880;28;24600;-77
2022/02/03 10:07:14;;;;;;;1.20;0.98;;;;;;;6.15;100.00;96055.91;5114457;28;24418;-76
2022/02/03 10:09:44;;;;;;;1.60;1.30;;;;;;;6.21;100.00;96037.66;5102154;28;24442;-75
2022/02/03 10:12:11;;;;;;;2.00;1.33;;;;;;;6.27;100.00;96032.28;5092790;28;24846;-75
2022/02/03 10:14:40;;;;;;;1.50;1.35;;;;;;;6.35;100.00;96030.22;5092288;28;24426;-76
2022/02/03 10:17:08;;;;;;;1.50;1.40;;;;;;;6.62;100.00;96020.47;5092169;28;24514;-76
2022/02/03 10:19:37;;;;;;;1.52;1.42;;;;;;;6.64;100.00;96010.97;5092654;28;24837;-76
2022/02/03 10:22:11;;;;;;;3.38;1.88;;;;;;;6.51;100.00;96005.47;5092353;28;25046;-75
2022/02/03 10:24:38;;;;;;;2.72;1.70;;;;;;;6.62;100.00;96006.78;5106629;28;24436;-75
2022/02/03 10:27:20;;;;;;;2.88;1.58;;;;;;;6.97;100.00;96007.78;5112330;28;24521;-75
2022/02/03 10:29:47;;;;;;;1.97;1.60;;;;;;;7.24;100.00;95992.84;5111589;28;24510;-75
2022/02/03 10:32:14;;;;;;;1.80;1.50;;;;;;;7.06;100.00;95991.94;5092344;28;24935;-75
2022/02/03 10:34:42;;;;;;;1.70;1.55;;;;;;;6.76;100.00;95978.69;5091869;28;24962;-75
2022/02/03 10:37:21;;;;;;;2.05;1.85;;;;;;;6.78;100.00;95966.56;5092107;28;24441;-75
2022/02/03 10:56:53;;;;;;;1.42;1.33;;;;;;;6.36;100.00;95948.72;5062891;28;24449;-74
2022/02/03 11:00:02;;;;;;;2.08;1.80;;;;;;;6.17;100.00;95940.97;5098303;28;24422;-75
2022/02/03 11:07:57;;;;;;;2.50;1.58;;;;;;;6.35;100.00;95939.34;5104387;28;24426;-75
2022/02/03 11:10:32;;;;;;;1.50;1.40;;;;;;;6.39;100.00;95943.44;5094717;28;24471;-75
2022/02/03 11:12:59;;;;;;;1.48;1.30;;;;;;;6.50;100.00;95929.22;5090493;28;24425;-75
2022/02/03 11:15:30;;;;;;;2.10;1.50;;;;;;;6.46;100.00;95921.69;5090986;28;24818;-75
2022/02/03 11:17:58;;;;;;;2.45;1.48;;;;;;;6.39;100.00;95918.56;5091080;28;24421;-75
2022/02/03 11:20:27;;;;;;;1.70;1.25;;;;;;;6.13;100.00;95909.41;5090995;28;24822;-75
2022/02/03 11:23:01;;;;;;;1.92;1.70;;;;;;;6.09;100.00;95913.00;5090790;28;24479;-75
2022/02/03 11:25:42;;;;;;;1.58;1.48;;;;;;;6.09;100.00;95913.00;5091312;28;24430;-75
2022/02/03 11:28:30;;;;;;;1.40;1.30;;;;;;;6.19;100.00;95896.28;5090843;28;24525;-75
2022/02/03 11:31:27;;;;;;;1.50;1.40;;;;;;;6.10;100.00;95893.25;5091020;28;24410;-75
2022/02/03 11:34:25;;;;;;;2.80;1.52;;;;;;;6.06;100.00;95901.09;5091026;28;24915;-75
2022/02/03 11:40:31;;;;;;;1.67;1.48;;;;;;;6.12;100.00;95879.44;5028289;28;24623;-75
2022/02/03 11:46:21;;;;;;;2.20;1.63;;;;;;;6.06;100.00;95872.81;5091287;28;24513;-76
2022/02/03 11:57:40;;;;;;;3.60;1.50;;;;;;;6.02;100.00;95849.88;5059276;28;24500;-75
2022/02/03 12:03:16;;;;;;;1.48;1.35;;;;;;;6.11;100.00;95864.06;5090603;28;24415;-75
2022/02/03 12:12:10;;;;;;;1.58;1.48;;;;;;;6.48;100.00;95827.25;5090665;28;24588;-75
2022/02/03 12:20:17;;;;;;;1.95;1.60;;;;;;;6.47;100.00;95841.03;5090425;28;24756;-75
2022/02/03 12:25:49;;;;;;;1.63;1.30;;;;;;;6.64;100.00;95820.50;5091235;28;24495;-75
2022/02/03 12:28:24;;;;;;;3.10;1.45;;;;;;;6.57;100.00;95805.44;5094108;28;24838;-75
2022/02/03 12:39:12;;;;;;;1.40;1.30;;;;;;;6.62;100.00;95777.72;5094288;28;24819;-77
2022/02/03 12:41:42;;;;;;;1.70;1.40;;;;;;;6.90;100.00;95772.94;5094156;28;24787;-75
2022/02/03 12:44:17;;;;;;;1.42;1.33;;;;;;;6.69;100.00;95768.81;5093810;28;24424;-75
2022/02/03 12:46:45;;;;;;;1.20;1.10;;;;;;;6.59;100.00;95772.72;5094017;28;24947;-75
2022/02/03 12:49:11;;;;;;;1.73;1.25;;;;;;;6.50;100.00;95787.69;5094007;28;24513;-75
2022/02/03 12:51:38;;;;;;;1.42;1.15;;;;;;;6.54;100.00;95776.34;5093919;28;25008;-76
2022/02/03 12:54:15;;;;;;;1.40;1.10;;;;;;;6.58;100.00;95782.19;5093499;28;24464;-75
2022/02/03 12:56:41;;;;;;;2.00;1.40;;;;;;;6.37;100.00;95783.19;5093782;28;24841;-75
2022/02/03 12:59:13;;;;;;;3.47;1.58;;;;;;;6.31;100.00;95763.72;5094229;28;24452;-76
2022/02/03 13:01:40;;;;;;;1.65;1.55;;;;;;;6.43;100.00;95752.88;5093955;28;24526;-76
2022/02/03 13:04:12;;;;;;;2.55;1.65;;;;;;;6.29;100.00;95752.66;5093611;28;24429;-76
2022/02/03 13:06:42;;;;;;;1.10;1.00;;;;;;;6.23;100.00;95756.38;5093992;28;25000;-77
2022/02/03 13:09:10;;;;;;;2.25;1.45;;;;;;;6.32;100.00;95756.84;5094446;28;24423;-77
2022/02/03 13:11:42;;;;;;;1.48;1.25;;;;;;;6.24;100.00;95752.06;5094815;28;24422;-78
2022/02/03 13:14:21;;;;;;;1.57;1.33;;;;;;;6.20;100.00;95750.53;5094812;28;24441;-77
2022/02/03 13:16:54;;;;;;;1.25;1.15;;;;;;;6.11;100.00;95723.47;5093335;28;24448;-77
2022/02/03 13:19:28;;;;;;;1.92;1.42;;;;;;;6.06;100.00;95712.59;5093371;28;24429;-75
2022/02/03 13:22:05;;;;;;;1.50;1.40;;;;;;;6.13;100.00;95718.28;5093562;28;24444;-76
2022/02/03 13:24:49;;;;;;;1.55;1.45;;;;;;;6.22;100.00;95723.00;5093255;28;24902;-75
2022/02/03 13:27:22;;;;;;;1.55;1.45;;;;;;;6.11;100.00;95743.22;5092707;28;24947;-76
2022/02/03 13:30:01;;;;;;;1.40;1.30;;;;;;;6.10;100.00;95744.97;5093104;28;24855;-76
2022/02/03 13:32:34;;;;;;;1.93;1.73;;;;;;;6.07;100.00;95727.94;5093230;28;24533;-76
2022/02/03 13:35:20;;;;;;;1.50;1.40;;;;;;;6.20;100.00;95722.25;5091994;28;24451;-76
2022/02/03 13:37:50;;;;;;;1.98;1.52;;;;;;;6.25;100.00;95702.28;5092689;28;24442;-76
2022/02/03 13:40:20;;;;;;;5.93;1.80;;;;;;;6.22;100.00;95699.84;5092743;28;24468;-75
2022/02/03 13:42:49;;;;;;;1.42;1.30;;;;;;;6.21;100.00;95701.59;5092625;28;25002;-75
2022/02/03 13:45:18;;;;;;;3.08;1.98;;;;;;;6.25;100.00;95687.69;5093054;28;24425;-75
2022/02/03 13:47:46;;;;;;;2.45;1.65;;;;;;;6.33;100.00;95687.31;5109320;28;24954;-76
2022/02/03 13:50:22;;;;;;;3.05;2.15;;;;;;;6.27;100.00;95678.16;5113018;28;24428;-76
2022/02/03 13:52:53;;;;;;;1.75;1.58;;;;;;;6.28;100.00;95684.97;5113403;28;24973;-75
2022/02/03 14:20:48;;;;;;;2.28;1.70;;;;;;;6.46;100.00;95672.97;5101615;28;24414;-74
2022/02/03 14:28:50;;;;;;;2.57;1.57;;;;;;;6.30;100.00;95677.16;5101738;28;24560;-75
2022/02/03 14:31:18;;;;;;;2.50;1.60;;;;;;;6.31;100.00;95681.41;5101371;28;24487;-75
2022/02/03 14:33:44;;;;;;;2.47;1.40;;;;;;;6.26;100.00;95680.78;5103042;28;24436;-75
2022/02/03 14:36:14;;;;;;;2.30;1.60;;;;;;;6.25;100.00;95684.28;5100611;28;24438;-75
2022/02/03 14:38:47;;;;;;;2.58;1.75;;;;;;;6.17;100.00;95683.81;5104872;28;24450;-75
2022/02/03 14:41:22;;;;;;;2.25;1.50;;;;;;;6.18;100.00;95685.47;5105092;28;24487;-75
2022/02/03 14:43:49;;;;;;;1.30;1.20;;;;;;;6.23;100.00;95675.78;5101351;28;24430;-75
2022/02/03 14:46:17;;;;;;;1.75;1.40;;;;;;;6.25;100.00;95672.25;5101440;28;24436;-75
2022/02/03 14:48:46;;;;;;;1.50;1.40;;;;;;;6.34;100.00;95665.84;5102935;28;24529;-75
2022/02/03 14:51:17;;;;;;;2.65;1.92;;;;;;;6.38;100.00;95664.78;5101453;28;24430;-75
2022/02/03 14:53:53;;;;;;;3.10;1.88;;;;;;;6.29;100.00;95645.47;5099965;28;24944;-75
2022/02/03 14:59:05;;;;;;;1.88;1.67;;;;;;;6.14;100.00;95642.81;5102768;28;24417;-75
2022/02/03 15:01:32;;;;;;;2.17;1.40;;;;;;;6.13;100.00;95652.25;5101182;28;24509;-76
2022/02/03 15:04:01;;;;;;;3.55;1.60;;;;;;;6.11;100.00;95659.19;5101678;28;24449;-75
2022/02/03 15:06:38;;;;;;;2.78;1.83;;;;;;;6.14;100.00;95665.94;5102850;28;24449;-75
2022/02/03 15:12:00;;;;;;;2.88;1.85;;;;;;;6.14;100.00;95659.06;5100023;28;24983;-76
2022/02/03 15:14:27;;;;;;;3.40;2.13;;;;;;;6.15;100.00;95657.31;5100164;28;24495;-76
2022/02/03 15:16:54;;;;;;;7.13;5.20;;;;;;;6.14;100.00;95663.38;5100892;28;24531;-76
2022/02/03 15:19:22;;;;;;;2.42;1.60;;;;;;;6.14;100.00;95650.50;5102551;28;24806;-76
2022/02/03 15:21:48;;;;;;;2.30;2.10;;;;;;;6.15;100.00;95655.56;5091240;28;24429;-76
2022/02/03 15:24:15;;;;;;;1.50;1.40;;;;;;;6.17;100.00;95655.53;5090890;28;24434;-76
2022/02/03 15:26:41;;;;;;;2.20;1.53;;;;;;;6.15;100.00;95657.31;5090626;28;24429;-75
2022/02/03 15:29:08;;;;;;;1.60;1.40;;;;;;;6.17;100.00;95651.22;5091251;28;24437;-75
2022/02/03 15:31:34;;;;;;;3.63;1.40;;;;;;;6.09;100.00;95660.19;5090778;28;24430;-75
2022/02/03 15:34:05;;;;;;;3.75;2.58;;;;;;;6.06;100.00;95656.84;5090771;28;24434;-74
2022/02/03 15:36:35;;;;;;;3.88;1.90;;;;;;;6.10;100.00;95656.72;5090584;28;24438;-75
2022/02/03 15:39:06;;;;;;;1.77;1.30;;;;;;;6.04;100.00;95662.97;5090048;28;24483;-75
2022/02/03 15:41:33;;;;;;;1.38;1.27;;;;;;;6.05;100.00;95668.03;5090280;28;24433;-75
2022/02/03 15:44:01;;;;;;;1.52;1.40;;;;;;;6.03;100.00;95657.00;5092986;28;24970;-74
2022/02/03 15:46:30;;;;;;;1.30;1.10;;;;;;;6.04;100.00;95653.53;5099466;28;24430;-74
2022/02/03 15:49:04;;;;;;;3.40;2.67;;;;;;;6.07;100.00;95658.50;5100135;28;24433;-74
2022/02/03 15:57:45;;;;;;;1.63;1.50;;;;;;;5.99;100.00;95647.75;5046994;28;24437;-74
2022/02/03 16:03:22;;;;;;;7.50;5.85;;;;;;;6.07;100.00;95637.94;5090116;28;24788;-74
2022/02/03 16:15:01;;;;;;;2.55;2.05;;;;;;;5.85;100.00;95644.13;5090144;28;24456;-74
2022/02/03 16:17:05;;;;;;;2.20;1.92;;;;;;;5.85;100.00;95636.41;5091083;28;24990;-74
2022/02/03 16:19:39;;;;;;;8.13;6.55;;;;;;;5.80;100.00;95634.91;5103032;28;24525;-74
2022/02/03 16:22:15;;;;;;;30.95;19.45;;;;;;;5.78;100.00;95633.28;5090243;28;24530;-74
2022/02/03 16:24:50;;;;;;;28.83;18.58;;;;;;;5.80;100.00;95624.63;5091954;28;24800;-75
2022/02/03 16:42:29;;;;;;;8.50;5.50;;;;;;;5.56;100.00;95644.56;5091558;28;24424;-75
2022/02/03 16:50:34;;;;;;;7.50;6.07;;;;;;;5.33;100.00;95644.75;5060246;28;24448;-74
2022/02/03 16:56:24;;;;;;;6.40;4.60;;;;;;;5.31;100.00;95628.59;5091383;28;24405;-75
2022/02/03 16:58:52;;;;;;;5.25;3.55;;;;;;;5.35;100.00;95637.81;5091200;28;24529;-75
2022/02/03 17:01:19;;;;;;;3.70;3.25;;;;;;;5.37;100.00;95628.28;5091513;28;24418;-75
2022/02/03 17:03:45;;;;;;;3.75;3.22;;;;;;;5.26;100.00;95635.63;5091229;28;24433;-75
2022/02/03 17:09:33;;;;;;;3.80;3.50;;;;;;;5.29;100.00;95620.94;5092701;28;24397;-74
2022/02/03 17:12:00;;;;;;;4.00;2.97;;;;;;;5.40;100.00;95635.03;5094936;28;24422;-74
2022/02/03 17:14:28;;;;;;;4.95;2.72;;;;;;;5.28;100.00;95628.72;5094331;28;24859;-75
2022/02/03 17:16:55;;;;;;;3.30;2.97;;;;;;;5.21;100.00;95622.19;5093851;28;24425;-76
2022/02/03 17:22:44;;;;;;;4.45;3.17;;;;;;;5.16;100.00;95617.25;5094925;28;24456;-75
2022/02/03 17:25:15;;;;;;;5.60;3.20;;;;;;;5.25;100.00;95618.56;5094361;28;25159;-74
2022/02/03 17:27:46;;;;;;;3.90;2.72;;;;;;;5.21;100.00;95611.91;5094633;28;24410;-75
2022/02/03 17:30:19;;;;;;;5.85;3.50;;;;;;;5.04;100.00;95639.16;5094553;28;24797;-74
2022/02/03 18:08:45;;;;;;;3.17;2.00;;;;;;;4.51;100.00;95656.78;5093581;28;25035;-75
2022/02/03 18:11:33;;;;;;;3.30;2.15;;;;;;;4.46;100.00;95656.97;5093930;28;24479;-75
2022/02/03 18:17:21;;;;;;;2.45;2.20;;;;;;;4.33;100.00;95638.69;5093985;28;24926;-75
2022/02/03 18:25:43;;;;;;;3.35;3.05;;;;;;;4.33;100.00;95637.84;5093628;28;24837;-75
2022/02/03 18:25:57;;;;;;;13.43;9.57;;;;;;;4.08;100.00;95630.31;5045398;28;24500;-75
2022/02/03 18:31:12;;;;;;;7.22;5.15;;;;;;;4.23;100.00;95628.88;5067249;28;24506;-75
2022/02/03 18:34:09;;;;;;;6.32;5.72;;;;;;;4.27;100.00;95626.13;5093399;28;24466;-75
2022/02/03 18:36:53;;;;;;;6.28;5.63;;;;;;;4.33;100.00;95630.16;5093302;28;25007;-75
2022/02/03 18:50:57;;;;;;;1.35;1.17;;;;;;;4.54;100.00;95638.72;5093188;28;24432;-75
2022/02/03 18:53:31;;;;;;;2.92;1.65;;;;;;;4.21;100.00;95643.47;5093047;28;24430;-75
2022/02/03 18:59:37;;;;;;;5.07;4.20;;;;;;;4.06;100.00;95627.81;5092651;28;24402;-75
2022/02/03 19:02:32;;;;;;;8.80;6.80;;;;;;;4.04;100.00;95623.63;5092834;28;24432;-75
2022/02/03 19:56:14;;;;;;;25.02;13.80;;;;;;;3.89;100.00;95599.44;5092164;28;24927;-75
2022/02/03 20:05:27;;;;;;;13.20;7.37;;;;;;;4.05;100.00;95610.78;5076244;28;24436;-74
2022/02/03 20:07:59;;;;;;;103.10;9.00;;;;;;;3.68;100.00;95611.38;5091618;28;24949;-75
2022/02/03 20:10:29;;;;;;;72.72;8.25;;;;;;;3.51;100.00;95617.13;5091591;28;24950;-75
2022/02/03 20:12:56;;;;;;;95.70;8.70;;;;;;;3.32;100.00;95619.53;5091689;28;24830;-75
2022/02/03 20:15:24;;;;;;;150.90;9.73;;;;;;;3.22;100.00;95618.19;5091393;28;24939;-74
2022/02/03 20:17:51;;;;;;;168.38;9.52;;;;;;;3.17;100.00;95624.38;5091633;28;24857;-74